Time;durP1;ratioP1;P1;durP2;ratioP2;P2;SDS_P1;SDS_P2;PMS_P1;PMS_P2;Temp;Humidity;BMP_temperature;BMP_pressure;BME280_temperature;BME280_humidity;BME280_pressure;Samples;Min_cycle;Max_cycle;Signal;HPM_P1;HPM_P2
2023/06/09 00:00:11;;;;;;;2.63;2.53;;;23.20;64.20;;;;;;5086166;28;43359;-67
2023/06/09 00:02:40;;;;;;;2.40;2.40;;;23.20;63.90;;;;;;5085821;27;43607;-67
2023/06/09 00:05:09;;;;;;;2.23;2.23;;;23.20;63.90;;;;;;5089162;27;43509;-67
2023/06/09 00:07:37;;;;;;;2.50;2.50;;;23.20;63.90;;;;;;5087736;27;43426;-67
2023/06/09 00:10:06;;;;;;;2.20;2.20;;;23.20;64.50;;;;;;5089105;28;43617;-67
2023/06/09 00:12:34;;;;;;;2.47;2.47;;;23.10;64.50;;;;;;5089747;27;43611;-67
2023/06/09 00:15:02;;;;;;;2.30;2.30;;;23.10;64.70;;;;;;5089567;27;43850;-67
2023/06/09 00:17:30;;;;;;;2.43;2.43;;;23.00;64.60;;;;;;5090385;27;43516;-68
2023/06/09 00:20:02;;;;;;;2.57;2.57;;;23.00;64.70;;;;;;5090171;28;43620;-67
2023/06/09 00:22:31;;;;;;;2.30;2.30;;;23.00;65.00;;;;;;5089565;27;43632;-67
2023/06/09 00:24:59;;;;;;;2.40;2.40;;;23.00;65.00;;;;;;5085517;27;43503;-67
2023/06/09 00:27:29;;;;;;;2.40;2.40;;;22.90;65.10;;;;;;5087336;27;43509;-67
2023/06/09 00:29:57;;;;;;;2.33;2.33;;;22.90;64.90;;;;;;5089679;27;43432;-67
2023/06/09 00:32:27;;;;;;;2.33;2.33;;;22.90;65.40;;;;;;5088782;27;43610;-67
2023/06/09 00:34:55;;;;;;;2.30;2.30;;;22.90;65.20;;;;;;5086666;28;45047;-67
2023/06/09 00:37:24;;;;;;;2.33;2.33;;;23.00;65.00;;;;;;5088789;27;43449;-67
2023/06/09 00:39:52;;;;;;;2.37;2.37;;;23.10;64.60;;;;;;5089716;27;43462;-68
2023/06/09 00:42:20;;;;;;;2.37;2.37;;;23.10;64.50;;;;;;5091373;27;43775;-67
2023/06/09 00:44:48;;;;;;;2.10;2.10;;;23.10;64.50;;;;;;5089821;28;43443;-67
2023/06/09 00:47:16;;;;;;;2.50;2.50;;;23.00;64.80;;;;;;5087679;28;43418;-67
2023/06/09 00:49:44;;;;;;;2.20;2.20;;;23.10;64.80;;;;;;5079840;28;43795;-67
2023/06/09 00:52:12;;;;;;;2.53;2.53;;;23.00;64.60;;;;;;5083999;27;43614;-67
2023/06/09 00:54:42;;;;;;;2.60;2.60;;;23.00;64.90;;;;;;5085695;28;43394;-67
2023/06/09 00:57:10;;;;;;;2.20;2.20;;;23.00;65.20;;;;;;5080215;28;43499;-67
2023/06/09 00:59:38;;;;;;;2.33;2.33;;;22.90;65.00;;;;;;5079527;27;43536;-67
2023/06/09 01:02:07;;;;;;;2.30;2.30;;;22.90;65.00;;;;;;5083191;27;43775;-68
2023/06/09 01:04:35;;;;;;;2.30;2.30;;;22.90;65.00;;;;;;5084556;28;44058;-68
2023/06/09 01:07:08;;;;;;;2.40;2.40;;;22.90;65.30;;;;;;5087255;28;43402;-68
2023/06/09 01:09:39;;;;;;;2.43;2.37;;;22.90;65.30;;;;;;5088175;27;43576;-68
2023/06/09 01:12:12;;;;;;;2.53;2.53;;;22.90;65.20;;;;;;5088571;28;43734;-68
2023/06/09 01:14:45;;;;;;;2.53;2.53;;;22.90;65.60;;;;;;5088766;28;43363;-68
2023/06/09 01:17:18;;;;;;;2.30;2.30;;;22.80;65.10;;;;;;5086312;28;43350;-68
2023/06/09 01:19:47;;;;;;;2.70;2.60;;;22.80;65.50;;;;;;5088307;28;43469;-68
2023/06/09 01:22:26;;;;;;;2.30;2.30;;;22.90;65.30;;;;;;5085477;28;45790;-68
2023/06/09 01:24:58;;;;;;;2.27;2.27;;;23.00;65.10;;;;;;5087158;28;43339;-67
2023/06/09 01:27:29;;;;;;;2.30;2.30;;;23.10;64.50;;;;;;5084474;27;43410;-67
2023/06/09 01:29:58;;;;;;;2.10;2.10;;;23.20;64.30;;;;;;5086525;27;44099;-67
2023/06/09 01:32:26;;;;;;;2.30;2.30;;;23.20;64.20;;;;;;5086777;27;45473;-67
2023/06/09 01:34:54;;;;;;;2.10;2.10;;;23.10;64.10;;;;;;5088349;28;43471;-67
2023/06/09 01:37:22;;;;;;;2.20;2.20;;;23.10;64.50;;;;;;5086258;27;44064;-67
2023/06/09 01:39:51;;;;;;;2.20;2.20;;;23.00;64.90;;;;;;5088303;28;43507;-67
2023/06/09 01:42:19;;;;;;;2.13;2.13;;;23.00;64.90;;;;;;5087181;28;44181;-67
2023/06/09 01:44:48;;;;;;;2.30;2.30;;;23.00;64.80;;;;;;5087813;28;43375;-67
2023/06/09 01:47:18;;;;;;;2.40;2.40;;;22.90;64.90;;;;;;5086664;28;43500;-67
2023/06/09 01:49:49;;;;;;;2.40;2.40;;;22.90;65.10;;;;;;5088566;27;43396;-67
2023/06/09 01:52:19;;;;;;;2.23;2.23;;;22.90;65.20;;;;;;5085824;28;43598;-67
2023/06/09 01:54:50;;;;;;;2.33;2.33;;;22.90;65.10;;;;;;5087926;28;43492;-67
2023/06/09 01:57:20;;;;;;;2.30;2.30;;;22.90;65.30;;;;;;5088079;27;43436;-68
2023/06/09 01:59:52;;;;;;;2.30;2.30;;;22.90;65.20;;;;;;5083007;27;43495;-67
2023/06/09 02:02:20;;;;;;;2.30;2.30;;;22.80;65.40;;;;;;5087355;27;43847;-67
2023/06/09 02:04:50;;;;;;;2.20;2.20;;;22.80;65.40;;;;;;5086099;27;44472;-68
2023/06/09 02:07:21;;;;;;;2.27;2.27;;;22.90;65.10;;;;;;5086189;27;43468;-67
2023/06/09 02:09:49;;;;;;;2.30;2.30;;;23.00;64.70;;;;;;5086887;28;44012;-68
2023/06/09 02:12:17;;;;;;;2.33;2.33;;;23.20;64.40;;;;;;5087658;28;43673;-68
2023/06/09 02:14:45;;;;;;;2.20;2.20;;;23.20;64.10;;;;;;5085755;28;44010;-67
2023/06/09 02:17:15;;;;;;;2.20;2.20;;;23.20;64.10;;;;;;5087539;27;43461;-68
2023/06/09 02:19:45;;;;;;;2.60;2.60;;;23.10;64.10;;;;;;5087413;27;43419;-68
2023/06/09 02:22:13;;;;;;;2.10;2.10;;;23.00;64.70;;;;;;5085999;28;45722;-68
2023/06/09 02:24:51;;;;;;;2.10;2.10;;;23.00;64.70;;;;;;5082539;28;43355;-68
2023/06/09 02:27:19;;;;;;;2.10;2.10;;;23.00;64.70;;;;;;5084661;27;43442;-67
2023/06/09 02:29:47;;;;;;;2.30;2.30;;;23.00;65.00;;;;;;5085901;28;43545;-67
2023/06/09 02:32:16;;;;;;;2.50;2.50;;;22.90;64.90;;;;;;5086738;28;43781;-67
2023/06/09 02:34:46;;;;;;;2.37;2.30;;;22.90;65.20;;;;;;5084381;28;43642;-67
2023/06/09 02:37:15;;;;;;;2.10;2.10;;;22.90;65.10;;;;;;5085522;27;43431;-68
2023/06/09 02:39:43;;;;;;;2.23;2.23;;;22.90;65.30;;;;;;5086310;28;43990;-68
2023/06/09 02:42:12;;;;;;;2.70;2.60;;;22.80;65.20;;;;;;5084447;28;45440;-67
2023/06/09 02:44:41;;;;;;;2.23;2.23;;;22.80;65.40;;;;;;5085655;28;43394;-67
2023/06/09 02:47:10;;;;;;;2.20;2.20;;;22.80;65.40;;;;;;5084170;28;43381;-67
2023/06/09 02:49:39;;;;;;;2.20;2.20;;;22.90;65.10;;;;;;5087455;27;43433;-68
2023/06/09 02:52:09;;;;;;;2.40;2.40;;;23.00;64.70;;;;;;5085462;27;44067;-67
2023/06/09 02:54:40;;;;;;;2.30;2.30;;;23.10;64.30;;;;;;5087264;27;43611;-67
2023/06/09 02:57:10;;;;;;;2.43;2.33;;;23.10;64.10;;;;;;5085430;27;43521;-68
2023/06/09 02:59:39;;;;;;;2.40;2.40;;;23.10;64.10;;;;;;5085723;28;43644;-67
2023/06/09 03:02:07;;;;;;;2.40;2.40;;;23.10;64.10;;;;;;5085684;27;44679;-68
2023/06/09 03:04:35;;;;;;;2.30;2.30;;;23.00;64.60;;;;;;5085144;28;44704;-67
2023/06/09 03:07:09;;;;;;;2.57;2.57;;;23.00;64.90;;;;;;5084073;28;43721;-67
2023/06/09 03:09:37;;;;;;;2.27;2.27;;;23.00;64.80;;;;;;5087053;27;44122;-67
2023/06/09 03:12:07;;;;;;;2.10;2.10;;;22.90;64.80;;;;;;5084989;28;45923;-68
2023/06/09 03:14:37;;;;;;;2.30;2.30;;;22.90;65.00;;;;;;5085684;28;44780;-67
2023/06/09 03:17:06;;;;;;;2.30;2.30;;;22.90;65.30;;;;;;5085037;27;43445;-67
2023/06/09 03:19:36;;;;;;;2.20;2.20;;;22.80;65.20;;;;;;5085028;28;44274;-66
2023/06/09 03:22:09;;;;;;;2.40;2.40;;;22.90;65.20;;;;;;5080429;27;43774;-67
2023/06/09 03:24:39;;;;;;;2.37;2.27;;;22.80;65.20;;;;;;5082036;28;43714;-66
2023/06/09 03:27:07;;;;;;;2.00;2.00;;;22.80;65.30;;;;;;5085391;28;43389;-66
2023/06/09 03:29:35;;;;;;;2.13;2.13;;;22.80;65.50;;;;;;5084498;28;43444;-67
2023/06/09 03:32:05;;;;;;;2.40;2.40;;;22.80;65.30;;;;;;5095589;27;45475;-69
2023/06/09 03:34:33;;;;;;;2.17;2.17;;;22.90;65.00;;;;;;5097409;27;45152;-68
2023/06/09 03:37:04;;;;;;;2.30;2.30;;;23.00;64.60;;;;;;5085544;28;43486;-69
2023/06/09 03:39:34;;;;;;;2.30;2.30;;;23.10;64.50;;;;;;5086049;28;43438;-68
2023/06/09 03:42:04;;;;;;;2.20;2.20;;;23.10;64.50;;;;;;5084779;27;44887;-68
2023/06/09 03:44:32;;;;;;;2.37;2.30;;;23.10;64.60;;;;;;5084150;27;44431;-67
2023/06/09 03:47:00;;;;;;;2.23;2.23;;;23.00;64.70;;;;;;5089591;28;43497;-68
2023/06/09 03:49:29;;;;;;;2.30;2.30;;;23.00;65.00;;;;;;5090660;27;43902;-68
2023/06/09 03:51:57;;;;;;;2.10;2.10;;;23.00;65.20;;;;;;5088617;27;45608;-68
2023/06/09 03:54:26;;;;;;;2.30;2.30;;;22.90;65.00;;;;;;5087295;28;45045;-68
2023/06/09 03:56:56;;;;;;;2.43;2.33;;;22.90;65.00;;;;;;5088105;28;43466;-68
2023/06/09 03:59:24;;;;;;;2.57;2.37;;;22.80;65.20;;;;;;5084449;28;43416;-68
2023/06/09 04:01:52;;;;;;;3.00;2.80;;;22.80;65.20;;;;;;5088187;28;46012;-68
2023/06/09 04:04:21;;;;;;;4.20;3.10;;;22.80;65.40;;;;;;5087984;28;44788;-67
2023/06/09 04:06:50;;;;;;;4.80;3.23;;;22.80;65.30;;;;;;5097699;27;43795;-67
2023/06/09 04:09:21;;;;;;;5.63;4.10;;;22.80;65.20;;;;;;5089012;28;43369;-67
2023/06/09 04:11:49;;;;;;;11.23;4.80;;;22.80;65.50;;;;;;5087211;28;46849;-68
2023/06/09 04:14:18;;;;;;;7.03;4.23;;;22.80;65.50;;;;;;5083874;28;43944;-67
2023/06/09 04:16:48;;;;;;;12.07;5.33;;;22.90;65.40;;;;;;5087163;28;44338;-67
2023/06/09 04:19:17;;;;;;;11.93;5.43;;;23.00;65.00;;;;;;5088573;28;43422;-68
2023/06/09 04:21:45;;;;;;;14.40;5.63;;;23.10;64.50;;;;;;5088135;28;45975;-67
2023/06/09 04:24:14;;;;;;;8.67;5.10;;;23.10;64.10;;;;;;5085298;28;45041;-68
2023/06/09 04:26:45;;;;;;;8.90;5.10;;;23.10;64.30;;;;;;5087838;27;43476;-67
2023/06/09 04:29:17;;;;;;;10.07;5.60;;;23.10;64.40;;;;;;5088468;27;44083;-67
2023/06/09 04:31:47;;;;;;;13.23;6.37;;;23.00;64.70;;;;;;5088208;28;44971;-68
2023/06/09 04:34:15;;;;;;;11.60;5.67;;;23.00;64.80;;;;;;5083591;27;44324;-68
2023/06/09 04:36:46;;;;;;;11.07;5.83;;;23.00;65.00;;;;;;5087736;28;43899;-67
2023/06/09 04:39:17;;;;;;;10.10;5.67;;;22.90;64.80;;;;;;5088416;28;43529;-67
2023/06/09 04:41:47;;;;;;;10.50;5.67;;;22.90;65.00;;;;;;5089179;28;43869;-67
2023/06/09 04:44:16;;;;;;;11.10;5.43;;;22.90;65.30;;;;;;5087413;28;44801;-68
2023/06/09 04:46:49;;;;;;;9.97;5.67;;;22.90;65.40;;;;;;5087723;27;44007;-68
2023/06/09 04:49:17;;;;;;;10.90;5.73;;;22.90;65.10;;;;;;5088173;28;44054;-67
2023/06/09 04:51:48;;;;;;;10.87;6.10;;;22.80;65.10;;;;;;5087791;28;45975;-68
2023/06/09 04:54:30;;;;;;;9.30;5.57;;;22.80;65.40;;;;;;5085860;27;45907;-67
2023/06/09 04:57:03;;;;;;;10.77;5.73;;;22.80;65.40;;;;;;5083980;28;44233;-67
2023/06/09 04:59:32;;;;;;;11.07;6.17;;;22.90;65.30;;;;;;5085387;28;43984;-68
2023/06/09 05:02:03;;;;;;;10.77;5.90;;;23.00;64.90;;;;;;5087956;27;45737;-68
2023/06/09 05:04:31;;;;;;;9.00;6.10;;;23.10;64.50;;;;;;5087423;28;44898;-67
2023/06/09 05:07:01;;;;;;;8.50;5.17;;;23.10;64.30;;;;;;5078920;28;43413;-67
2023/06/09 05:09:29;;;;;;;7.00;5.03;;;23.10;64.40;;;;;;5089357;27;43940;-67
2023/06/09 05:11:58;;;;;;;11.13;6.23;;;23.00;64.40;;;;;;5085137;28;45428;-71
2023/06/09 05:14:26;;;;;;;6.23;4.87;;;23.00;64.90;;;;;;5083916;28;43938;-68
2023/06/09 05:16:58;;;;;;;9.17;5.70;;;23.00;65.00;;;;;;5087227;27;43417;-67
2023/06/09 05:19:28;;;;;;;7.57;5.10;;;23.00;65.10;;;;;;5087110;27;43948;-67
2023/06/09 05:21:57;;;;;;;10.37;5.37;;;22.90;64.90;;;;;;5086269;28;45755;-68
2023/06/09 05:24:26;;;;;;;10.10;5.70;;;22.90;64.90;;;;;;5087191;28;44863;-67
2023/06/09 05:26:54;;;;;;;8.43;5.67;;;22.90;65.40;;;;;;5088576;27;43395;-68
2023/06/09 05:29:22;;;;;;;9.40;5.40;;;22.80;65.30;;;;;;5083415;27;43531;-67
2023/06/09 05:31:50;;;;;;;5.93;4.80;;;22.90;65.50;;;;;;5087298;28;45958;-67
2023/06/09 05:34:18;;;;;;;7.53;5.13;;;22.80;65.20;;;;;;5083845;28;44737;-68
2023/06/09 05:36:48;;;;;;;8.90;5.40;;;22.80;65.60;;;;;;5095733;27;43486;-68
2023/06/09 05:39:16;;;;;;;5.50;4.90;;;22.80;65.60;;;;;;5087360;27;43545;-67
2023/06/09 05:41:44;;;;;;;6.17;4.90;;;22.80;65.60;;;;;;5088093;27;44805;-68
2023/06/09 05:44:12;;;;;;;5.67;4.87;;;22.80;66.40;;;;;;5088402;27;44027;-67
2023/06/09 05:46:40;;;;;;;5.57;4.97;;;22.70;65.00;;;;;;5088566;27;43377;-68
2023/06/09 05:49:08;;;;;;;6.60;5.03;;;22.70;65.60;;;;;;5091147;27;43422;-67
2023/06/09 05:51:36;;;;;;;6.97;4.97;;;22.70;65.60;;;;;;5083851;27;43610;-68
2023/06/09 05:54:07;;;;;;;5.33;4.80;;;22.80;65.40;;;;;;5080719;28;43397;-68
2023/06/09 05:56:37;;;;;;;5.73;4.90;;;23.00;65.00;;;;;;5087433;28;43462;-68
2023/06/09 05:59:08;;;;;;;6.80;4.70;;;23.10;64.50;;;;;;5088803;28;43627;-68
2023/06/09 06:01:36;;;;;;;6.77;4.80;;;23.10;64.50;;;;;;5088025;28;43720;-68
2023/06/09 06:04:04;;;;;;;5.70;4.70;;;23.10;64.30;;;;;;5084773;28;43430;-68
2023/06/09 06:06:33;;;;;;;5.03;4.60;;;23.10;64.60;;;;;;5088109;28;43499;-68
2023/06/09 06:09:01;;;;;;;6.50;5.17;;;23.00;64.90;;;;;;5088670;28;43430;-67
2023/06/09 06:11:30;;;;;;;4.93;4.43;;;22.90;65.00;;;;;;5087892;27;45023;-68
2023/06/09 06:13:58;;;;;;;5.73;4.93;;;22.90;65.10;;;;;;5085601;28;43470;-67
2023/06/09 06:16:26;;;;;;;5.17;4.53;;;22.90;65.20;;;;;;5086905;28;43454;-68
2023/06/09 06:18:54;;;;;;;5.40;4.90;;;22.80;64.90;;;;;;5086196;27;43415;-69
2023/06/09 06:21:22;;;;;;;5.43;4.93;;;22.80;65.40;;;;;;5086147;28;43592;-68
2023/06/09 06:23:51;;;;;;;5.47;4.43;;;22.80;65.50;;;;;;5086229;28;43514;-67
2023/06/09 06:26:19;;;;;;;4.90;4.47;;;22.80;65.50;;;;;;5085983;28;43546;-68
2023/06/09 06:28:48;;;;;;;4.60;4.20;;;22.80;65.40;;;;;;5085564;28;43517;-68
2023/06/09 06:31:17;;;;;;;4.33;4.03;;;22.70;65.20;;;;;;5087688;27;43859;-68
2023/06/09 06:33:45;;;;;;;4.70;4.37;;;22.70;65.70;;;;;;5084640;28;44030;-68
2023/06/09 06:36:14;;;;;;;4.37;4.00;;;22.80;65.80;;;;;;5086676;27;43744;-67
2023/06/09 06:38:42;;;;;;;4.70;4.30;;;22.70;65.60;;;;;;5089222;27;43410;-68
2023/06/09 06:41:10;;;;;;;5.00;4.60;;;22.70;65.30;;;;;;5086869;27;43969;-67
2023/06/09 06:43:38;;;;;;;5.00;4.50;;;22.70;65.50;;;;;;5087359;27;43437;-67
2023/06/09 06:46:11;;;;;;;4.93;4.63;;;22.70;65.80;;;;;;5086081;28;43471;-68
2023/06/09 06:48:40;;;;;;;4.80;4.33;;;22.70;65.60;;;;;;5087458;27;43958;-67
2023/06/09 06:51:08;;;;;;;4.83;4.40;;;22.80;65.20;;;;;;5087432;27;44596;-67
2023/06/09 06:53:37;;;;;;;4.77;4.37;;;22.90;64.80;;;;;;5087040;28;44167;-67
2023/06/09 06:56:06;;;;;;;4.03;3.80;;;23.10;64.40;;;;;;5087550;27;43439;-68
2023/06/09 06:58:34;;;;;;;4.13;3.83;;;23.10;64.30;;;;;;5087391;28;43360;-68
2023/06/09 07:01:02;;;;;;;4.40;4.10;;;23.10;64.40;;;;;;5088387;27;43544;-68
2023/06/09 07:03:33;;;;;;;4.37;4.17;;;23.00;64.40;;;;;;5083618;28;43476;-67
2023/06/09 07:06:01;;;;;;;4.53;4.13;;;23.00;64.90;;;;;;5084744;27;43449;-68
2023/06/09 07:08:30;;;;;;;4.03;3.73;;;23.00;65.00;;;;;;5084655;28;43358;-67
2023/06/09 07:10:57;;;;;;;4.23;3.93;;;22.90;65.00;;;;;;5086596;27;43601;-67
2023/06/09 07:13:25;;;;;;;4.00;3.80;;;22.90;65.00;;;;;;5087072;27;44072;-67
2023/06/09 07:15:53;;;;;;;3.87;3.67;;;22.80;65.10;;;;;;5087344;27;43467;-68
2023/06/09 07:18:21;;;;;;;4.07;3.87;;;22.80;65.50;;;;;;5091145;27;43379;-67
2023/06/09 07:20:51;;;;;;;4.03;3.83;;;22.80;65.50;;;;;;5090537;28;44022;-67
2023/06/09 07:23:19;;;;;;;3.97;3.77;;;22.80;65.50;;;;;;5089877;28;43420;-68
2023/06/09 07:25:49;;;;;;;4.30;4.00;;;22.70;65.10;;;;;;5088197;27;43494;-68
2023/06/09 07:28:17;;;;;;;4.20;4.00;;;22.70;65.60;;;;;;5089954;27;43742;-68
2023/06/09 07:30:45;;;;;;;4.47;4.17;;;22.70;65.60;;;;;;5090550;27;43881;-67
2023/06/09 07:33:16;;;;;;;4.27;3.97;;;22.80;65.40;;;;;;5089350;27;43426;-67
2023/06/09 07:35:44;;;;;;;3.70;3.60;;;22.90;65.00;;;;;;5087513;27;43422;-67
2023/06/09 07:38:15;;;;;;;4.30;4.10;;;23.00;64.70;;;;;;5090826;28;44061;-68
2023/06/09 07:40:43;;;;;;;3.53;3.43;;;23.00;64.60;;;;;;5088610;28;44045;-67
2023/06/09 07:43:10;;;;;;;3.80;3.60;;;23.00;64.60;;;;;;5084192;28;43467;-67
2023/06/09 07:45:39;;;;;;;4.37;4.07;;;23.00;64.70;;;;;;5087289;28;43800;-68
2023/06/09 07:48:07;;;;;;;4.83;4.60;;;22.90;64.90;;;;;;5090291;27;43405;-67
2023/06/09 07:50:35;;;;;;;5.30;5.00;;;22.90;65.10;;;;;;5089648;28;44170;-68
2023/06/09 07:53:24;;;;;;;5.50;5.03;;;22.80;64.50;;;;;;5086182;28;43754;-68
2023/06/09 07:55:52;;;;;;;6.40;5.80;;;22.80;64.80;;;;;;5087437;28;43391;-67
2023/06/09 07:58:20;;;;;;;6.43;6.03;;;22.70;64.70;;;;;;5082705;28;43510;-67
2023/06/09 08:00:50;;;;;;;6.93;6.33;;;22.70;63.70;;;;;;5085937;28;44863;-67
2023/06/09 08:03:18;;;;;;;6.07;5.67;;;22.70;63.70;;;;;;5081828;27;43532;-67
2023/06/09 08:05:46;;;;;;;6.23;5.87;;;22.60;64.20;;;;;;5090227;27;44013;-68
2023/06/09 08:08:15;;;;;;;9.07;6.33;;;22.60;64.30;;;;;;5088989;27;43473;-68
2023/06/09 08:10:44;;;;;;;7.03;6.43;;;22.60;64.40;;;;;;5092095;27;43676;-68
2023/06/09 08:13:15;;;;;;;6.50;5.90;;;22.60;64.10;;;;;;5088888;27;43493;-67
2023/06/09 08:15:44;;;;;;;6.90;6.60;;;22.60;63.80;;;;;;5089412;27;45062;-68
2023/06/09 08:18:12;;;;;;;6.70;6.30;;;22.70;63.50;;;;;;5088733;27;43453;-68
2023/06/09 08:20:40;;;;;;;16.83;6.97;;;22.80;63.20;;;;;;5089293;27;44106;-68
2023/06/09 08:23:08;;;;;;;6.93;6.40;;;22.80;63.30;;;;;;5090978;27;44235;-68
2023/06/09 08:25:37;;;;;;;7.07;6.43;;;22.80;64.10;;;;;;5091015;27;43371;-67
2023/06/09 08:28:10;;;;;;;7.57;6.83;;;22.80;63.70;;;;;;5089243;27;43379;-67
2023/06/09 08:30:38;;;;;;;7.00;6.60;;;22.70;64.00;;;;;;5088424;27;45391;-68
2023/06/09 08:33:06;;;;;;;6.67;6.33;;;22.70;64.00;;;;;;5092388;27;43653;-68
2023/06/09 08:35:34;;;;;;;6.40;5.93;;;22.70;64.20;;;;;;5089871;27;43438;-68
2023/06/09 08:38:02;;;;;;;6.30;5.63;;;22.70;64.20;;;;;;5092820;27;44874;-68
2023/06/09 08:40:30;;;;;;;6.70;6.40;;;22.60;64.10;;;;;;5089512;27;43992;-67
2023/06/09 08:42:59;;;;;;;7.00;6.50;;;22.60;64.50;;;;;;5088609;27;44627;-67
2023/06/09 08:45:30;;;;;;;6.60;6.30;;;22.60;64.40;;;;;;5087908;27;43514;-68
2023/06/09 08:48:00;;;;;;;6.57;6.27;;;22.60;64.50;;;;;;5090817;27;43395;-68
2023/06/09 08:50:30;;;;;;;6.40;6.20;;;22.60;64.40;;;;;;5089166;27;43691;-68
2023/06/09 08:52:58;;;;;;;6.60;6.20;;;22.60;64.60;;;;;;5087034;27;43519;-68
2023/06/09 08:55:26;;;;;;;6.63;6.33;;;22.50;64.80;;;;;;5089056;27;43523;-68
2023/06/09 08:57:54;;;;;;;6.63;6.33;;;22.60;64.30;;;;;;5088329;27;43460;-67
2023/06/09 09:00:22;;;;;;;6.20;5.80;;;22.70;64.00;;;;;;5086199;27;43571;-68
2023/06/09 09:02:51;;;;;;;6.80;6.40;;;22.80;63.80;;;;;;5093012;27;43510;-67
2023/06/09 09:05:19;;;;;;;6.43;6.23;;;22.90;63.90;;;;;;5088049;27;44024;-67
2023/06/09 09:07:47;;;;;;;6.30;6.00;;;22.80;63.90;;;;;;5090861;27;44018;-68
2023/06/09 09:10:15;;;;;;;6.93;6.40;;;22.80;64.00;;;;;;5085821;27;46119;-67
2023/06/09 09:12:47;;;;;;;6.40;6.10;;;22.70;64.10;;;;;;5088846;27;43467;-68
2023/06/09 09:15:16;;;;;;;6.07;5.83;;;22.70;64.40;;;;;;5089494;27;43426;-68
2023/06/09 09:17:45;;;;;;;6.07;5.87;;;22.70;64.60;;;;;;5086094;27;43527;-67
2023/06/09 09:20:15;;;;;;;5.90;5.70;;;22.70;64.60;;;;;;5089795;27;43854;-68
2023/06/09 09:22:44;;;;;;;6.77;6.20;;;22.60;64.30;;;;;;5089621;27;44098;-68
2023/06/09 09:25:21;;;;;;;6.00;5.80;;;22.60;64.80;;;;;;5087329;27;43477;-67
2023/06/09 09:27:59;;;;;;;6.27;5.97;;;22.60;65.00;;;;;;5087178;27;43461;-68
2023/06/09 09:30:41;;;;;;;8.87;8.07;;;22.60;64.90;;;;;;5086643;27;43614;-68
2023/06/09 09:33:09;;;;;;;9.77;8.77;;;22.60;64.60;;;;;;5085323;27;44957;-67
2023/06/09 09:35:39;;;;;;;9.27;8.47;;;22.50;64.50;;;;;;5086500;27;43479;-67
2023/06/09 09:38:12;;;;;;;9.50;8.60;;;22.50;65.00;;;;;;5088024;27;43772;-67
2023/06/09 09:40:44;;;;;;;10.03;8.77;;;22.50;64.90;;;;;;5087214;27;44034;-67
2023/06/09 09:43:12;;;;;;;10.17;9.17;;;22.50;64.70;;;;;;5089394;27;43509;-67
2023/06/09 09:45:43;;;;;;;11.67;9.30;;;22.60;64.70;;;;;;5087724;27;43449;-67
2023/06/09 09:48:12;;;;;;;10.43;9.47;;;22.60;64.80;;;;;;5088001;27;43918;-67
2023/06/09 09:50:42;;;;;;;9.67;8.93;;;22.50;65.20;;;;;;5087331;27;43747;-67
2023/06/09 09:53:10;;;;;;;9.53;8.40;;;22.60;65.00;;;;;;5081660;27;43914;-67
2023/06/09 09:55:39;;;;;;;10.20;8.60;;;22.70;64.60;;;;;;5082365;27;43488;-67
2023/06/09 09:58:08;;;;;;;9.10;8.20;;;22.80;64.40;;;;;;5088432;27;44390;-66
2023/06/09 10:00:36;;;;;;;9.87;8.83;;;22.90;64.10;;;;;;5091347;27;46934;-67
2023/06/09 10:03:08;;;;;;;8.90;8.00;;;23.00;64.20;;;;;;5091769;27;43447;-66
2023/06/09 10:05:38;;;;;;;9.03;8.13;;;22.90;64.10;;;;;;5088536;27;43461;-67
2023/06/09 10:08:08;;;;;;;8.03;7.50;;;22.90;64.10;;;;;;5089196;27;43340;-69
2023/06/09 10:10:42;;;;;;;8.20;7.60;;;22.80;64.60;;;;;;5088858;27;43860;-68
2023/06/09 10:13:10;;;;;;;7.50;6.90;;;22.80;64.50;;;;;;5086465;27;43469;-68
2023/06/09 10:15:38;;;;;;;7.70;7.10;;;22.80;64.50;;;;;;5087571;27;43493;-68
2023/06/09 10:18:06;;;;;;;7.27;6.77;;;22.80;64.30;;;;;;5092094;27;44119;-68
2023/06/09 10:20:35;;;;;;;6.47;6.07;;;22.70;64.40;;;;;;5089597;27;43720;-68
2023/06/09 10:23:03;;;;;;;6.73;6.23;;;22.70;64.20;;;;;;5088361;27;44080;-68
2023/06/09 10:25:32;;;;;;;7.03;6.47;;;22.70;64.20;;;;;;5090882;27;43417;-67
2023/06/09 10:28:00;;;;;;;6.90;6.40;;;22.70;64.00;;;;;;5090343;27;44652;-68
2023/06/09 10:30:28;;;;;;;6.60;6.10;;;22.70;64.00;;;;;;5086042;27;43878;-68
2023/06/09 10:32:58;;;;;;;6.87;6.47;;;22.70;64.60;;;;;;5085376;27;43598;-68
2023/06/09 10:35:28;;;;;;;6.53;5.93;;;22.70;64.00;;;;;;5086812;27;43444;-68
2023/06/09 10:37:58;;;;;;;6.00;5.70;;;22.80;64.30;;;;;;5087198;27;43378;-68
2023/06/09 10:40:35;;;;;;;5.70;5.50;;;22.90;63.80;;;;;;5086853;27;43888;-68
2023/06/09 10:43:15;;;;;;;6.07;5.67;;;23.00;63.60;;;;;;5087861;27;43484;-68
2023/06/09 10:45:52;;;;;;;5.47;5.17;;;23.00;63.40;;;;;;5076789;27;43628;-68
2023/06/09 10:48:42;;;;;;;5.57;5.20;;;22.90;63.00;;;;;;5086893;27;43851;-68
2023/06/09 10:51:38;;;;;;;6.00;5.70;;;22.90;62.90;;;;;;5085442;27;44420;-68
2023/06/09 10:54:35;;;;;;;5.40;5.00;;;22.90;63.50;;;;;;5085998;27;43499;-68
2023/06/09 10:57:06;;;;;;;5.17;4.87;;;22.80;63.40;;;;;;5064155;27;43492;-66
2023/06/09 11:02:48;;;;;;;5.17;4.87;;;22.80;63.90;;;;;;5090979;27;43731;-67
2023/06/09 11:05:17;;;;;;;5.23;4.93;;;22.70;63.70;;;;;;5087464;27;43598;-66
2023/06/09 11:07:52;;;;;;;4.60;4.40;;;22.70;63.60;;;;;;5089062;27;43415;-66
2023/06/09 11:10:28;;;;;;;4.87;4.67;;;22.80;63.50;;;;;;5085857;27;43378;-68
2023/06/09 11:12:59;;;;;;;4.87;4.60;;;22.80;63.40;;;;;;5085337;27;43618;-67
2023/06/09 11:16:04;;;;;;;4.97;4.67;;;22.70;63.80;;;;;;5084384;27;43808;-66
2023/06/09 11:18:33;;;;;;;4.90;4.70;;;22.70;63.60;;;;;;5085108;27;43954;-66
2023/06/09 11:21:19;;;;;;;4.43;4.33;;;22.70;63.50;;;;;;5087566;27;43463;-67
2023/06/09 11:23:55;;;;;;;5.00;4.70;;;22.70;63.30;;;;;;5087151;27;43614;-67
2023/06/09 11:26:24;;;;;;;4.27;4.17;;;22.70;63.50;;;;;;5087991;27;43535;-66
2023/06/09 11:28:53;;;;;;;4.60;4.30;;;22.70;64.10;;;;;;5084161;27;43439;-67
2023/06/09 11:31:21;;;;;;;4.50;4.40;;;22.70;63.60;;;;;;5084766;27;43437;-67
2023/06/09 11:33:50;;;;;;;4.87;4.57;;;22.90;63.70;;;;;;5087206;27;43709;-66
2023/06/09 11:36:23;;;;;;;4.10;4.00;;;23.00;63.30;;;;;;5082388;28;43665;-67
2023/06/09 11:38:51;;;;;;;4.70;4.50;;;23.10;62.60;;;;;;5085175;27;43425;-67
2023/06/09 11:41:21;;;;;;;4.50;4.30;;;23.10;63.10;;;;;;5087145;27;44139;-67
2023/06/09 11:43:51;;;;;;;3.93;3.83;;;23.10;62.90;;;;;;5086932;27;43590;-67
2023/06/09 11:46:20;;;;;;;4.43;4.30;;;23.00;62.90;;;;;;5087006;28;43481;-67
2023/06/09 11:49:01;;;;;;;4.00;3.90;;;23.00;63.80;;;;;;5087035;27;43987;-67
2023/06/09 11:51:52;;;;;;;4.13;3.90;;;22.90;63.70;;;;;;5084917;28;43442;-67
2023/06/09 11:54:21;;;;;;;4.00;3.80;;;22.90;63.50;;;;;;5081499;28;43770;-67
2023/06/09 11:56:49;;;;;;;3.70;3.60;;;22.90;63.30;;;;;;5083964;27;43979;-67
2023/06/09 11:59:18;;;;;;;4.40;4.20;;;22.80;64.20;;;;;;5081439;28;43496;-67
2023/06/09 12:01:58;;;;;;;3.70;3.60;;;22.80;64.40;;;;;;5084975;27;43394;-67
2023/06/09 12:04:26;;;;;;;3.60;3.40;;;22.80;63.90;;;;;;5085310;28;43854;-66
2023/06/09 12:06:54;;;;;;;3.87;3.77;;;22.80;63.70;;;;;;5089522;27;43391;-67
2023/06/09 12:09:23;;;;;;;3.50;3.40;;;22.70;64.10;;;;;;5089587;27;44046;-66
2023/06/09 12:11:54;;;;;;;3.83;3.73;;;22.70;64.50;;;;;;5086733;28;43420;-66
2023/06/09 12:14:22;;;;;;;3.73;3.63;;;22.70;64.50;;;;;;5080967;28;45685;-67
2023/06/09 12:16:50;;;;;;;4.00;3.80;;;22.70;64.00;;;;;;5086659;27;43486;-66
2023/06/09 12:19:21;;;;;;;4.00;3.90;;;22.70;64.00;;;;;;5088849;27;43464;-67
2023/06/09 12:21:49;;;;;;;3.93;3.80;;;22.70;64.80;;;;;;5088211;28;43498;-67
2023/06/09 12:24:17;;;;;;;3.53;3.43;;;22.70;64.80;;;;;;5083877;27;43647;-66
2023/06/09 12:26:47;;;;;;;3.60;3.50;;;22.80;64.70;;;;;;5089095;27;43402;-66
2023/06/09 12:29:15;;;;;;;3.90;3.80;;;22.90;64.40;;;;;;5086693;28;43481;-67
2023/06/09 12:31:46;;;;;;;3.70;3.60;;;23.00;64.20;;;;;;5089136;27;43428;-67
2023/06/09 12:34:25;;;;;;;3.50;3.40;;;23.00;64.00;;;;;;5087622;27;43885;-66
2023/06/09 12:36:54;;;;;;;3.67;3.57;;;23.00;63.90;;;;;;5088498;28;43412;-67
2023/06/09 12:39:23;;;;;;;3.20;3.10;;;23.00;63.60;;;;;;5087668;28;43405;-67
2023/06/09 12:41:51;;;;;;;3.43;3.33;;;22.90;64.50;;;;;;5085986;28;43461;-67
2023/06/09 12:44:20;;;;;;;3.57;3.47;;;22.90;64.60;;;;;;5087779;28;43622;-67
2023/06/09 12:46:55;;;;;;;3.00;2.90;;;22.90;64.40;;;;;;5081499;27;43457;-67
2023/06/09 12:49:31;;;;;;;3.27;3.17;;;22.80;64.00;;;;;;5087298;28;43428;-67
2023/06/09 12:51:59;;;;;;;3.20;3.10;;;22.80;64.20;;;;;;5089086;28;43513;-67
2023/06/09 12:54:28;;;;;;;3.37;3.27;;;22.70;64.80;;;;;;5088652;28;43786;-68
2023/06/09 12:56:58;;;;;;;3.33;3.23;;;22.80;64.80;;;;;;5107968;27;43375;-68
2023/06/09 12:59:26;;;;;;;2.97;2.97;;;22.80;64.50;;;;;;5108032;28;43790;-68
2023/06/09 13:01:57;;;;;;;3.30;3.20;;;22.70;64.20;;;;;;5108783;27;43339;-68